createdAt,value
2023-04-02T00:01:39.160Z,97703.91
2023-04-02T00:04:25.756Z,97704.22
2023-04-02T00:07:33.118Z,97699.38
2023-04-02T00:10:28.552Z,97702.47
2023-04-02T00:13:13.443Z,97706.56
2023-04-02T00:16:00.138Z,97705.13
2023-04-02T00:18:49.608Z,97709.56
2023-04-02T00:21:38.798Z,97707.91
2023-04-02T00:24:24.735Z,97698.47
2023-04-02T00:27:14.116Z,97711.22
2023-04-02T00:29:59.302Z,97707.47
2023-04-02T00:32:45.083Z,97703.78
2023-04-02T00:35:30.533Z,97715.78
2023-04-02T00:38:27.669Z,97707.00
2023-04-02T00:41:19.006Z,97705.47
2023-04-02T00:44:05.419Z,97715.09
2023-04-02T00:46:51.021Z,97707.69
2023-04-02T00:49:37.899Z,97712.88
2023-04-02T00:52:27.282Z,97721.66
2023-04-02T00:55:20.855Z,97720.88
2023-04-02T00:58:31.904Z,97726.66
2023-04-02T01:01:19.340Z,97738.03
2023-04-02T01:04:05.578Z,97738.34
2023-04-02T01:06:52.861Z,97730.22
2023-04-02T01:09:54.712Z,97741.38
2023-04-02T01:12:53.935Z,97734.81
2023-04-02T01:16:06.287Z,97742.81
2023-04-02T01:19:09.827Z,97736.50
2023-04-02T01:22:17.870Z,97750.34
2023-04-02T01:25:05.870Z,97742.50
2023-04-02T01:27:57.975Z,97747.16
2023-04-02T01:30:45.242Z,97743.72
2023-04-02T01:33:33.601Z,97738.94
2023-04-02T01:36:44.193Z,97742.41
2023-04-02T01:39:54.033Z,97740.25
2023-04-02T01:43:01.470Z,97751.03
2023-04-02T01:45:46.808Z,97758.44
2023-04-02T01:48:31.565Z,97749.34
2023-04-02T01:51:28.156Z,97752.09
2023-04-02T01:54:16.047Z,97744.91
2023-04-02T01:57:01.119Z,97748.44
2023-04-02T01:59:46.130Z,97741.78
2023-04-02T02:02:31.251Z,97743.19
2023-04-02T02:05:19.455Z,97746.38
2023-04-02T02:08:18.922Z,97753.31
2023-04-02T02:11:05.173Z,97757.25
2023-04-02T02:13:54.960Z,97755.56
2023-04-02T02:16:42.993Z,97752.88
2023-04-02T02:19:48.482Z,97759.28
2023-04-02T02:22:37.001Z,97754.97
2023-04-02T02:25:30.421Z,97753.44
2023-04-02T02:28:22.823Z,97755.19
2023-04-02T02:31:17.951Z,97761.69
2023-04-02T02:34:16.212Z,97765.78
2023-04-02T02:37:12.818Z,97763.88
2023-04-02T02:40:00.796Z,97768.94
2023-04-02T02:42:56.442Z,97766.03
2023-04-02T02:45:43.682Z,97769.38
2023-04-02T02:48:37.136Z,97772.88
2023-04-02T02:51:40.116Z,97782.19
2023-04-02T02:54:29.651Z,97788.13
2023-04-02T02:57:22.649Z,97787.47
2023-04-02T03:00:15.277Z,97793.72
2023-04-02T03:03:07.160Z,97787.06
2023-04-02T03:06:02.228Z,97793.91
2023-04-02T03:09:06.265Z,97797.38
2023-04-02T03:12:16.302Z,97802.63
2023-04-02T03:15:42.162Z,97810.34
2023-04-02T03:19:05.438Z,97813.94
2023-04-02T03:22:02.533Z,97817.97
2023-04-02T03:25:01.507Z,97828.28
2023-04-02T03:27:51.285Z,97819.81
2023-04-02T03:31:06.513Z,97822.84
2023-04-02T03:34:00.840Z,97824.91
2023-04-02T03:36:56.129Z,97833.22
2023-04-02T03:39:46.063Z,97843.78
2023-04-02T03:42:44.914Z,97838.25
2023-04-02T03:45:40.567Z,97839.72
2023-04-02T03:48:28.259Z,97840.41
2023-04-02T03:51:26.236Z,97838.97
2023-04-02T03:54:15.458Z,97843.03
2023-04-02T03:57:01.154Z,97839.81
2023-04-02T03:59:56.844Z,97840.50
2023-04-02T04:02:51.858Z,97841.41
2023-04-02T04:05:47.864Z,97844.31
2023-04-02T04:08:41.971Z,97847.41
2023-04-02T04:11:33.326Z,97846.44
2023-04-02T04:14:27.522Z,97847.31
2023-04-02T04:17:23.390Z,97851.53
2023-04-02T04:20:16.983Z,97845.78
2023-04-02T04:23:14.439Z,97855.47
2023-04-02T04:26:19.095Z,97854.81
2023-04-02T04:29:29.044Z,97853.69
2023-04-02T04:32:33.421Z,97854.16
2023-04-02T04:35:30.611Z,97854.50
2023-04-02T04:38:27.075Z,97858.72
2023-04-02T04:41:21.974Z,97855.28
2023-04-02T04:44:39.329Z,97862.81
2023-04-02T04:47:39.745Z,97867.81
2023-04-02T04:50:37.011Z,97858.72
2023-04-02T04:53:24.963Z,97857.19
2023-04-02T04:56:19.342Z,97862.38
2023-04-02T04:59:23.001Z,97861.28
2023-04-02T05:02:15.860Z,97860.53
2023-04-02T05:05:03.051Z,97859.63
2023-04-02T05:07:52.423Z,97869.69
2023-04-02T05:10:50.396Z,97876.78
2023-04-02T05:14:12.735Z,97877.75
2023-04-02T05:17:08.607Z,97882.34
2023-04-02T05:20:21.053Z,97874.06
2023-04-02T05:23:19.287Z,97885.25
2023-04-02T05:26:36.117Z,97878.94
2023-04-02T05:29:42.595Z,97890.28
2023-04-02T05:32:34.265Z,97891.38
2023-04-02T05:35:24.970Z,97890.28
2023-04-02T05:38:23.335Z,97896.22
2023-04-02T05:41:36.008Z,97903.97
2023-04-02T05:44:22.408Z,97903.38
2023-04-02T05:47:18.883Z,97909.19
2023-04-02T05:50:08.007Z,97908.72
2023-04-02T05:53:09.086Z,97906.06
2023-04-02T05:56:13.391Z,97909.38
2023-04-02T05:59:15.663Z,97908.78
2023-04-02T06:02:10.865Z,97917.78
2023-04-02T06:05:06.321Z,97915.56
2023-04-02T06:08:07.105Z,97920.53
2023-04-02T06:11:00.902Z,97925.94
2023-04-02T06:13:45.939Z,97932.16
2023-04-02T06:16:33.804Z,97939.41
2023-04-02T06:19:24.602Z,97941.00
2023-04-02T06:22:39.276Z,97935.31
2023-04-02T06:25:30.657Z,97935.97
2023-04-02T06:28:53.227Z,97944.63
2023-04-02T06:31:53.573Z,97952.44
2023-04-02T06:34:41.799Z,97948.56
2023-04-02T06:37:37.009Z,97947.53
2023-04-02T06:40:33.016Z,97943.38
2023-04-02T06:43:40.474Z,97951.78
2023-04-02T06:46:53.367Z,97946.25
2023-04-02T06:50:11.461Z,97957.44
2023-04-02T06:53:00.671Z,97949.50
2023-04-02T06:56:00.735Z,97953.16
2023-04-02T06:58:48.268Z,97958.06
2023-04-02T07:01:39.770Z,97960.88
2023-04-02T07:04:25.404Z,97958.59
2023-04-02T07:07:11.470Z,97962.97
2023-04-02T07:10:00.242Z,97960.66
2023-04-02T07:12:45.278Z,97965.03
2023-04-02T07:15:30.266Z,97975.53
2023-04-02T07:18:31.840Z,97974.56
2023-04-02T07:21:19.316Z,97966.81
2023-04-02T07:24:04.784Z,97963.06
2023-04-02T07:26:50.012Z,97974.28
2023-04-02T07:29:34.768Z,97971.00
2023-04-02T07:32:20.177Z,97975.53
2023-04-02T07:35:05.630Z,97978.47
2023-04-02T07:37:52.201Z,97975.38
2023-04-02T07:40:38.078Z,97984.66
2023-04-02T07:43:23.024Z,97975.25
2023-04-02T07:46:08.328Z,97987.09
2023-04-02T07:48:52.826Z,97976.66
2023-04-02T07:51:37.660Z,97981.28
2023-04-02T07:54:22.588Z,97975.03
2023-04-02T07:57:07.488Z,97981.34
2023-04-02T07:59:55.812Z,97980.13
2023-04-02T08:02:41.191Z,97981.34
2023-04-02T08:05:27.135Z,97987.06
2023-04-02T08:08:11.944Z,97988.13
2023-04-02T08:10:57.104Z,97982.31
2023-04-02T08:13:42.654Z,97982.19
2023-04-02T08:16:27.473Z,97990.94
2023-04-02T08:19:12.412Z,97989.91
2023-04-02T08:21:57.139Z,97994.34
2023-04-02T08:24:41.741Z,97993.41
2023-04-02T08:27:26.000Z,97992.03
2023-04-02T08:30:12.494Z,97995.59
2023-04-02T08:32:57.233Z,97990.56
2023-04-02T08:35:42.125Z,97996.63
2023-04-02T08:38:26.617Z,97990.22
2023-04-02T08:41:22.525Z,97991.97
2023-04-02T08:44:28.939Z,97988.00
2023-04-02T08:47:14.837Z,97981.25
2023-04-02T08:50:03.782Z,97989.47
2023-04-02T08:52:48.713Z,97996.22
2023-04-02T08:55:47.144Z,97995.13
2023-04-02T08:58:42.342Z,98005.44
2023-04-02T09:01:38.787Z,98003.06
2023-04-02T09:04:25.469Z,98009.72
2023-04-02T09:07:16.372Z,98013.25
2023-04-02T09:10:01.174Z,98011.28
2023-04-02T09:12:51.418Z,98011.19
2023-04-02T09:15:36.119Z,98014.00
2023-04-02T09:18:21.136Z,98010.69
2023-04-02T09:21:27.669Z,98017.88
2023-04-02T09:24:15.358Z,98023.22
2023-04-02T09:27:00.537Z,98025.44
2023-04-02T09:29:48.948Z,98015.19
2023-04-02T09:32:45.991Z,98018.66
2023-04-02T09:35:33.428Z,98022.84
2023-04-02T09:38:22.441Z,98018.44
2023-04-02T09:41:19.364Z,98026.50
2023-04-02T09:44:13.399Z,98021.75
2023-04-02T09:47:02.865Z,98025.84
2023-04-02T09:49:47.645Z,98033.28
2023-04-02T09:52:32.661Z,98021.06
2023-04-02T09:55:30.428Z,98028.31
2023-04-02T09:58:16.851Z,98020.13
2023-04-02T10:01:01.614Z,98021.22
2023-04-02T10:03:47.055Z,98032.50
2023-04-02T10:06:33.822Z,98028.00
2023-04-02T10:09:28.326Z,98030.22
2023-04-02T10:12:14.880Z,98033.59
2023-04-02T10:15:02.596Z,98035.88
2023-04-02T10:18:02.015Z,98045.19
2023-04-02T10:20:51.501Z,98040.97
2023-04-02T10:23:36.719Z,98034.09
2023-04-02T10:26:47.802Z,98043.97
2023-04-02T10:30:02.046Z,98045.91
2023-04-02T10:33:01.177Z,98040.13
2023-04-02T10:36:04.273Z,98046.69
2023-04-02T10:39:05.521Z,98043.78
2023-04-02T10:42:03.086Z,98042.47
2023-04-02T10:44:57.525Z,98039.09
2023-04-02T10:48:00.019Z,98047.19
2023-04-02T10:50:58.576Z,98054.06
2023-04-02T10:53:56.283Z,98054.13
2023-04-02T10:56:50.531Z,98050.84
2023-04-02T10:59:41.658Z,98051.78
2023-04-02T11:02:31.228Z,98047.44
2023-04-02T11:05:42.716Z,98052.47
2023-04-02T11:08:45.206Z,98056.69
2023-04-02T11:11:38.142Z,98058.22
2023-04-02T11:14:26.786Z,98058.75
2023-04-02T11:17:14.510Z,98058.91
2023-04-02T11:20:38.420Z,98056.00
2023-04-02T11:23:27.275Z,98059.13
2023-04-02T11:26:31.151Z,98059.84
2023-04-02T11:29:28.803Z,98062.19
2023-04-02T11:32:16.410Z,98063.84
2023-04-02T11:35:07.424Z,98063.22
2023-04-02T11:37:55.076Z,98061.19
2023-04-02T11:40:44.860Z,98060.72
2023-04-02T11:43:32.751Z,98067.69
2023-04-02T11:46:30.280Z,98076.41
2023-04-02T11:49:35.426Z,98079.44
2023-04-02T11:52:26.553Z,98077.97
2023-04-02T11:55:26.737Z,98070.91
2023-04-02T11:58:37.347Z,98083.81
2023-04-02T12:01:31.999Z,98090.94
2023-04-02T12:04:27.722Z,98078.22
2023-04-02T12:07:38.076Z,98077.28
2023-04-02T12:10:27.920Z,98075.34
2023-04-02T12:13:40.746Z,98076.28
2023-04-02T12:16:32.451Z,98067.22
2023-04-02T12:19:17.595Z,98068.44
2023-04-02T12:22:02.388Z,98073.91
2023-04-02T12:24:48.871Z,98073.47
2023-04-02T12:27:37.593Z,98074.59
2023-04-02T12:30:24.040Z,98081.13
2023-04-02T12:33:33.172Z,98080.91
2023-04-02T12:36:19.716Z,98081.19
2023-04-02T12:39:16.503Z,98075.88
2023-04-02T12:42:01.154Z,98065.59
2023-04-02T12:44:49.033Z,98067.03
2023-04-02T12:47:34.039Z,98058.56
2023-04-02T12:50:20.512Z,98063.72
2023-04-02T12:53:23.377Z,98062.19
2023-04-02T12:56:18.876Z,98061.84
2023-04-02T12:59:03.737Z,98064.09
2023-04-02T13:01:58.327Z,98065.16
2023-04-02T13:04:50.958Z,98062.25
2023-04-02T13:07:35.623Z,98069.84
2023-04-02T13:10:26.906Z,98077.28
2023-04-02T13:13:17.515Z,98079.53
2023-04-02T13:16:14.868Z,98076.22
2023-04-02T13:19:11.053Z,98089.44
2023-04-02T13:21:59.263Z,98087.06
2023-04-02T13:24:43.842Z,98085.19
2023-04-02T13:27:28.728Z,98100.69
2023-04-02T13:30:21.667Z,98103.19
2023-04-02T13:33:07.163Z,98097.69
2023-04-02T13:35:52.487Z,98090.91
2023-04-02T13:38:37.302Z,98089.09
2023-04-02T13:41:36.175Z,98102.25
2023-04-02T13:44:26.776Z,98097.06
2023-04-02T13:47:14.205Z,98112.25
2023-04-02T13:49:58.948Z,98105.97
2023-04-02T13:52:44.423Z,98106.22
2023-04-02T13:55:34.896Z,98104.34
2023-04-02T13:58:19.844Z,98112.22
2023-04-02T14:01:05.373Z,98105.88
2023-04-02T14:03:51.243Z,98113.41
2023-04-02T14:06:58.053Z,98110.31
2023-04-02T14:10:03.910Z,98117.56
2023-04-02T14:13:10.541Z,98115.00
2023-04-02T14:16:23.056Z,98118.38
2023-04-02T14:19:35.246Z,98116.84
2023-04-02T14:22:23.110Z,98124.09
2023-04-02T14:25:35.507Z,98118.41
2023-04-02T14:28:44.759Z,98132.38
2023-04-02T14:31:50.384Z,98126.16
2023-04-02T14:34:35.124Z,98128.75
2023-04-02T14:37:29.779Z,98132.59
2023-04-02T14:40:38.235Z,98134.44
2023-04-02T14:43:29.531Z,98133.88
2023-04-02T14:46:14.581Z,98128.97
2023-04-02T14:49:08.489Z,98133.34
2023-04-02T14:51:56.039Z,98133.63
2023-04-02T14:55:03.751Z,98135.44
2023-04-02T14:57:52.920Z,98136.25
2023-04-02T15:00:43.268Z,98146.59
2023-04-02T15:03:36.879Z,98138.09
2023-04-02T15:06:31.267Z,98140.13
2023-04-02T15:09:23.402Z,98139.63
2023-04-02T15:12:23.123Z,98134.97
2023-04-02T15:15:26.829Z,98133.94
2023-04-02T15:18:18.553Z,98134.47
2023-04-02T15:21:18.480Z,98129.31
2023-04-02T15:24:18.334Z,98135.22
2023-04-02T15:27:25.193Z,98136.22
2023-04-02T15:30:22.868Z,98142.88
2023-04-02T15:33:20.072Z,98140.56
2023-04-02T15:36:21.146Z,98148.53
2023-04-02T15:39:47.529Z,98163.72
2023-04-02T15:42:41.589Z,98167.56
2023-04-02T15:45:58.624Z,98165.19
2023-04-02T15:48:52.569Z,98175.97
2023-04-02T15:52:07.165Z,98176.44
2023-04-02T15:55:30.764Z,98182.28
2023-04-02T15:58:24.200Z,98177.34
2023-04-02T16:01:34.237Z,98202.84
2023-04-02T16:04:27.771Z,98194.53
2023-04-02T16:07:29.761Z,98198.63
2023-04-02T16:10:41.956Z,98193.94
2023-04-02T16:13:36.276Z,98201.09
2023-04-02T16:16:33.999Z,98201.31
2023-04-02T16:19:22.870Z,98206.94
2023-04-02T16:22:27.784Z,98206.91
2023-04-02T16:25:22.376Z,98208.66
2023-04-02T16:28:30.491Z,98213.22
2023-04-02T16:31:45.580Z,98206.00
2023-04-02T16:34:49.054Z,98214.97
2023-04-02T16:37:48.155Z,98211.09
2023-04-02T16:40:41.880Z,98215.72
2023-04-02T16:43:33.310Z,98221.59
2023-04-02T16:46:39.867Z,98221.56
2023-04-02T16:49:35.868Z,98222.75
2023-04-02T16:52:49.286Z,98230.19
2023-04-02T16:55:40.207Z,98234.97
2023-04-02T16:58:43.105Z,98227.16
2023-04-02T17:01:51.396Z,98237.59
2023-04-02T17:04:45.658Z,98244.25
2023-04-02T17:07:33.942Z,98246.56
2023-04-02T17:10:22.823Z,98242.47
2023-04-02T17:13:43.237Z,98245.81
2023-04-02T17:16:36.308Z,98254.28
2023-04-02T17:19:25.299Z,98255.13
2023-04-02T17:22:16.628Z,98264.69
2023-04-02T17:25:03.835Z,98265.50
2023-04-02T17:27:52.628Z,98268.63
2023-04-02T17:30:48.842Z,98261.97
2023-04-02T17:33:33.372Z,98282.31
2023-04-02T17:36:59.551Z,98275.13
2023-04-02T17:40:22.508Z,98279.50
2023-04-02T17:43:31.803Z,98280.28
2023-04-02T17:46:40.725Z,98284.13
2023-04-02T17:50:23.465Z,98288.22
2023-04-02T17:53:27.721Z,98290.56
2023-04-02T17:56:37.134Z,98289.25
2023-04-02T17:59:28.699Z,98296.44
2023-04-02T18:02:38.239Z,98300.25
2023-04-02T18:05:31.383Z,98292.19
2023-04-02T18:08:48.941Z,98304.72
2023-04-02T18:11:53.163Z,98300.84
2023-04-02T18:14:47.165Z,98302.09
2023-04-02T18:17:47.152Z,98301.31
2023-04-02T18:20:39.165Z,98294.63
2023-04-02T18:23:52.992Z,98298.22
2023-04-02T18:26:49.727Z,98296.97
2023-04-02T18:30:02.046Z,98302.09
2023-04-02T18:33:02.510Z,98296.44
2023-04-02T18:35:59.071Z,98307.00
2023-04-02T18:38:53.446Z,98304.41
2023-04-02T18:41:44.445Z,98306.78
2023-04-02T18:44:49.668Z,98301.63
2023-04-02T18:47:57.569Z,98311.91
2023-04-02T18:50:46.172Z,98307.56
2023-04-02T18:53:32.066Z,98307.56
2023-04-02T18:56:19.655Z,98310.41
2023-04-02T18:59:52.496Z,98317.09
2023-04-02T19:02:56.278Z,98308.41
2023-04-02T19:05:48.933Z,98315.31
2023-04-02T19:08:39.357Z,98302.47
2023-04-02T19:11:28.806Z,98300.91
2023-04-02T19:14:17.169Z,98311.19
2023-04-02T19:17:24.372Z,98309.66
2023-04-02T19:20:29.868Z,98313.22
2023-04-02T19:23:27.046Z,98316.31
2023-04-02T19:26:22.102Z,98313.22
2023-04-02T19:29:16.060Z,98310.34
2023-04-02T19:32:18.873Z,98315.94
2023-04-02T19:35:22.277Z,98316.91
2023-04-02T19:38:28.122Z,98317.41
2023-04-02T19:41:33.164Z,98310.63
2023-04-02T19:44:18.283Z,98320.69
2023-04-02T19:47:03.666Z,98320.19
2023-04-02T19:49:48.838Z,98308.91
2023-04-02T19:52:33.693Z,98318.97
2023-04-02T19:55:18.678Z,98318.97
2023-04-02T19:58:13.170Z,98317.72
2023-04-02T20:01:04.603Z,98320.03
2023-04-02T20:03:49.918Z,98322.34
2023-04-02T20:06:35.244Z,98320.28
2023-04-02T20:09:21.171Z,98322.84
2023-04-02T20:12:05.987Z,98328.75
2023-04-02T20:14:50.829Z,98319.50
2023-04-02T20:17:36.071Z,98317.16
2023-04-02T20:20:20.572Z,98317.41
2023-04-02T20:23:05.783Z,98325.31
2023-04-02T20:25:54.422Z,98320.44
2023-04-02T20:28:39.798Z,98321.22
2023-04-02T20:31:25.007Z,98321.22
2023-04-02T20:34:10.142Z,98319.44
2023-04-02T20:36:55.177Z,98321.75
2023-04-02T20:39:40.303Z,98326.56
2023-04-02T20:42:25.892Z,98330.41
2023-04-02T20:45:10.942Z,98324.97
2023-04-02T20:47:56.104Z,98332.91
2023-04-02T20:50:42.424Z,98332.38
2023-04-02T20:53:33.041Z,98329.47
2023-04-02T20:56:18.840Z,98326.16
2023-04-02T20:59:03.766Z,98331.75
2023-04-02T21:01:48.158Z,98331.50
2023-04-02T21:04:32.563Z,98333.53
2023-04-02T21:07:17.069Z,98330.44
2023-04-02T21:10:02.046Z,98330.66
2023-04-02T21:12:46.995Z,98327.56
2023-04-02T21:15:33.045Z,98332.22
2023-04-02T21:18:17.690Z,98333.47
2023-04-02T21:21:05.240Z,98329.34
2023-04-02T21:23:58.773Z,98331.69
2023-04-02T21:26:45.932Z,98325.53
2023-04-02T21:29:30.960Z,98326.56
2023-04-02T21:32:21.403Z,98329.91
2023-04-02T21:35:08.366Z,98325.53
2023-04-02T21:37:53.372Z,98330.66
2023-04-02T21:40:38.452Z,98324.00
2023-04-02T21:43:23.162Z,98321.16
2023-04-02T21:46:07.736Z,98317.81
2023-04-02T21:48:53.944Z,98317.59
2023-04-02T21:51:40.214Z,98314.72
2023-04-02T21:54:24.917Z,98322.19
2023-04-02T21:57:10.250Z,98319.63
2023-04-02T21:59:56.266Z,98325.53
2023-04-02T22:02:41.026Z,98316.75
2023-04-02T22:05:28.294Z,98314.66
2023-04-02T22:08:13.583Z,98316.22
2023-04-02T22:11:04.805Z,98320.56
2023-04-02T22:13:50.543Z,98324.66
2023-04-02T22:16:36.008Z,98323.91
2023-04-02T22:19:21.501Z,98331.13
2023-04-02T22:22:06.131Z,98325.25
2023-04-02T22:24:50.485Z,98333.16
2023-04-02T22:27:35.515Z,98326.94
2023-04-02T22:30:20.419Z,98334.13
2023-04-02T22:33:05.485Z,98329.84
2023-04-02T22:35:51.486Z,98335.25
2023-04-02T22:38:36.342Z,98334.84
2023-04-02T22:41:26.782Z,98340.03
2023-04-02T22:44:15.258Z,98342.59
2023-04-02T22:47:00.194Z,98349.78
2023-04-02T22:49:45.022Z,98354.84
2023-04-02T22:52:29.969Z,98346.72
2023-04-02T22:55:15.015Z,98350.44
2023-04-02T22:58:00.200Z,98354.59
2023-04-02T23:00:45.791Z,98356.72
2023-04-02T23:03:30.475Z,98360.66
2023-04-02T23:06:17.464Z,98358.19
2023-04-02T23:09:02.291Z,98357.56
2023-04-02T23:11:47.139Z,98357.91
2023-04-02T23:14:32.303Z,98363.91
2023-04-02T23:17:17.266Z,98364.38
2023-04-02T23:20:01.732Z,98369.84
2023-04-02T23:22:46.162Z,98375.63
2023-04-02T23:25:30.861Z,98366.38
2023-04-02T23:28:16.088Z,98361.25
2023-04-02T23:31:02.716Z,98365.47
2023-04-02T23:33:48.167Z,98368.84
2023-04-02T23:36:34.263Z,98368.81
2023-04-02T23:39:19.788Z,98367.13
2023-04-02T23:42:05.106Z,98376.09
2023-04-02T23:44:49.884Z,98367.63
2023-04-02T23:47:34.561Z,98365.94
2023-04-02T23:50:19.299Z,98375.16
2023-04-02T23:53:04.237Z,98365.28
2023-04-02T23:55:49.178Z,98365.16
2023-04-02T23:58:35.229Z,98372.16
